Terminal Aerodrome Forecast
Issued by NWS Charleston, WV

Current Version | Previous Version | Graphics & Text | Print | Product List | Glossary On
Versions: 1 2 3 4 5 6 7 8 9 10 11 12 13 14 15 16 17 18 19 20 21 22 23 24 25 26 27
000
FTUS41 KRLX 271100
TAFHTS
TAF
KHTS 271132Z 2712/2812 00000KT 1/2SM FG VV002
     FM271400 00000KT 3SM BR FEW004
     FM271500 08004KT P6SM FEW040
     FM280100 00000KT P6SM SCT200
     FM280800 00000KT 6SM BR SCT200=

USA.gov is the U.S. government's official web portal to all federal, state and local government web resources and services.